createdAt,value
2019-02-14T00:03:09.463Z,1.8
2019-02-14T00:08:07.755Z,1.7
2019-02-14T00:13:06.255Z,1.2
2019-02-14T00:18:04.447Z,1.7
2019-02-14T00:23:02.657Z,1.1
2019-02-14T00:28:00.981Z,1.6
2019-02-14T00:32:59.307Z,1
2019-02-14T00:37:57.684Z,1.6
2019-02-14T00:42:55.815Z,1.6
2019-02-14T00:47:54.039Z,0.9
2019-02-14T00:52:52.047Z,1.1
2019-02-14T00:57:50.272Z,1.5
2019-02-14T01:02:48.578Z,1
2019-02-14T01:07:46.977Z,0.9
2019-02-14T01:12:45.508Z,1.4
2019-02-14T01:17:43.856Z,1.4
2019-02-14T01:22:41.563Z,1.4
2019-02-14T01:27:39.797Z,1.4
2019-02-14T01:32:38.225Z,1.3
2019-02-14T01:37:36.409Z,1.3
2019-02-14T01:42:34.688Z,1.3
2019-02-14T01:47:33.013Z,1.3
2019-02-14T01:52:31.371Z,0.6
2019-02-14T01:57:29.712Z,1.2
2019-02-14T02:02:28.051Z,1.2
2019-02-14T02:07:26.302Z,0.6
2019-02-14T02:12:24.588Z,1.1
2019-02-14T02:17:22.838Z,1.1
2019-02-14T02:22:21.335Z,1.1
2019-02-14T02:27:19.940Z,1.1
2019-02-14T02:32:18.141Z,1
2019-02-14T02:37:16.414Z,1
2019-02-14T02:42:14.815Z,1
2019-02-14T02:47:13.183Z,1
2019-02-14T02:52:10.861Z,0.9
2019-02-14T02:57:09.151Z,0.9
2019-02-14T03:02:07.142Z,0.9
2019-02-14T03:07:05.528Z,0.9
2019-02-14T03:12:04.020Z,0.9
2019-02-14T03:17:02.412Z,0.8
2019-02-14T03:22:00.621Z,0.8
2019-02-14T03:26:58.979Z,0.6
2019-02-14T03:31:57.218Z,0.7
2019-02-14T03:36:55.037Z,0.7
2019-02-14T03:41:53.300Z,0.7
2019-02-14T03:46:51.621Z,0.6
2019-02-14T03:51:49.982Z,0.6
2019-02-14T03:56:48.337Z,0.6
2019-02-14T04:01:46.784Z,0.6
2019-02-14T04:06:44.370Z,0.6
2019-02-14T04:11:42.635Z,0.5
2019-02-14T04:16:40.304Z,-0.1
2019-02-14T04:21:38.459Z,0.5
2019-02-14T04:26:36.653Z,0.4
2019-02-14T04:31:34.898Z,0.4
2019-02-14T04:36:35.950Z,-0.2
2019-02-14T04:41:34.206Z,0.4
2019-02-14T04:46:32.452Z,0.3
2019-02-14T04:51:30.209Z,0.3
2019-02-14T04:56:28.738Z,-0.8
2019-02-14T05:01:27.146Z,0.3
2019-02-14T05:06:25.674Z,0.2
2019-02-14T05:11:23.897Z,0.2
2019-02-14T05:16:22.238Z,0.2
2019-02-14T05:21:20.575Z,-0.4
2019-02-14T05:26:19.056Z,0.2
2019-02-14T05:31:17.452Z,0.1
2019-02-14T05:36:15.753Z,0.1
2019-02-14T05:41:14.165Z,0.1
2019-02-14T05:46:12.657Z,0
2019-02-14T05:51:10.903Z,0
2019-02-14T05:56:09.234Z,0
2019-02-14T06:01:07.258Z,0
2019-02-14T06:06:05.569Z,-0.1
2019-02-14T06:11:03.967Z,-0.1
2019-02-14T06:16:02.372Z,-0.1
2019-02-14T06:21:00.624Z,-0.7
2019-02-14T06:25:59.037Z,-0.8
2019-02-14T06:30:57.727Z,-0.2
2019-02-14T06:35:56.146Z,-0.8
2019-02-14T06:40:54.091Z,-0.2
2019-02-14T06:45:52.478Z,-0.2
2019-02-14T06:50:50.883Z,-0.9
2019-02-14T06:55:49.060Z,-0.3
2019-02-14T07:00:47.144Z,-0.3
2019-02-14T07:05:45.383Z,-0.3
2019-02-14T07:10:43.776Z,-0.3
2019-02-14T07:15:42.183Z,-0.3
2019-02-14T07:20:40.510Z,-0.3
2019-02-14T07:25:38.922Z,-0.3
2019-02-14T07:30:37.445Z,-0.4
2019-02-14T07:35:35.965Z,-1
2019-02-14T07:40:34.205Z,-0.4
2019-02-14T07:45:32.596Z,-0.9
2019-02-14T07:50:30.741Z,-1
2019-02-14T07:55:29.089Z,-1.5
2019-02-14T08:00:27.071Z,-0.4
2019-02-14T08:05:25.514Z,-0.3
2019-02-14T08:10:23.898Z,-0.3
2019-02-14T08:15:22.509Z,-1.4
2019-02-14T08:20:20.977Z,-0.3
2019-02-14T08:25:19.460Z,-0.3
2019-02-14T08:30:17.965Z,-0.3
2019-02-14T08:35:16.336Z,-0.9
2019-02-14T08:40:14.920Z,-0.2
2019-02-14T08:45:13.292Z,-0.2
2019-02-14T08:50:11.729Z,-0.8
2019-02-14T08:55:10.295Z,-0.2
2019-02-14T09:00:08.313Z,-0.7
2019-02-14T09:05:06.564Z,-0.1
2019-02-14T09:10:04.908Z,-0.7
2019-02-14T09:15:02.652Z,-0.6
2019-02-14T09:20:00.812Z,-0.6
2019-02-14T09:24:59.164Z,-0.5
2019-02-14T09:29:57.456Z,-0.5
2019-02-14T09:34:55.747Z,0.1
2019-02-14T09:39:54.058Z,0.2
2019-02-14T09:44:52.358Z,-0.3
2019-02-14T09:49:50.750Z,-0.3
2019-02-14T09:54:49.467Z,0.3
2019-02-14T09:59:47.828Z,0.4
2019-02-14T10:04:46.115Z,-0.2
2019-02-14T10:09:44.807Z,-0.1
2019-02-14T10:14:43.571Z,0.5
2019-02-14T10:19:42.169Z,0.6
2019-02-14T10:24:40.636Z,0.4
2019-02-14T10:29:39.059Z,0.7
2019-02-14T10:34:37.575Z,0.1
2019-02-14T10:39:36.389Z,0.2
2019-02-14T10:44:34.767Z,0.9
2019-02-14T10:49:33.071Z,0.9
2019-02-14T10:54:31.773Z,1
2019-02-14T10:59:30.185Z,1
2019-02-14T11:04:28.656Z,1.1
2019-02-14T11:09:27.070Z,1.2
2019-02-14T11:14:29.078Z,1.2
2019-02-14T11:19:27.289Z,0.8
2019-02-14T11:24:25.953Z,1.4
2019-02-14T11:29:24.548Z,1.5
2019-02-14T11:34:22.349Z,1.5
2019-02-14T11:39:20.541Z,1
2019-02-14T11:44:19.084Z,1.6
2019-02-14T11:49:17.552Z,1.7
2019-02-14T11:54:16.204Z,0.9
2019-02-14T11:59:14.408Z,1.3
2019-02-14T12:04:12.952Z,1.5
2019-02-14T12:09:11.497Z,2
2019-02-14T12:14:09.673Z,2.1
2019-02-14T12:19:08.236Z,2.2
2019-02-14T12:24:06.730Z,2.2
2019-02-14T12:29:05.272Z,1.7
2019-02-14T12:34:03.404Z,1.8
2019-02-14T12:39:08.514Z,2.4
2019-02-14T12:45:57.849Z,3
2019-02-14T12:50:54.871Z,2.9
2019-02-14T12:55:52.628Z,2.8
2019-02-14T13:00:51.241Z,2.4
2019-02-14T13:05:49.855Z,2.9
2019-02-14T13:10:48.572Z,2.9
2019-02-14T13:15:47.139Z,2.4
2019-02-14T13:20:45.654Z,3
2019-02-14T13:25:43.483Z,3.1
2019-02-14T13:30:41.886Z,3.1
2019-02-14T13:35:40.750Z,3.2
2019-02-14T13:40:39.547Z,3.2
2019-02-14T13:45:38.185Z,2.7
2019-02-14T13:50:36.709Z,2.7
2019-02-14T13:55:35.699Z,2.8
2019-02-14T14:00:34.631Z,3.4
2019-02-14T14:05:33.214Z,3.4
2019-02-14T14:10:31.686Z,2.9
2019-02-14T14:15:30.067Z,3.5
2019-02-14T14:20:28.444Z,3.6
2019-02-14T14:25:27.008Z,3.1
2019-02-14T14:30:25.459Z,3.1
2019-02-14T14:35:23.918Z,3.7
2019-02-14T14:40:22.360Z,3.7
2019-02-14T14:45:20.886Z,3.2
2019-02-14T14:50:19.303Z,3.2
2019-02-14T14:55:17.974Z,3.8
2019-02-14T15:00:16.329Z,3.3
2019-02-14T15:05:14.822Z,3.9
2019-02-14T15:10:13.330Z,3.4
2019-02-14T15:15:11.290Z,4
2019-02-14T15:20:09.474Z,3.4
2019-02-14T15:25:08.086Z,3.5
2019-02-14T15:30:06.601Z,4.1
2019-02-14T15:35:04.955Z,3.5
2019-02-14T15:40:08.933Z,4.1
2019-02-14T15:45:07.114Z,4.2
2019-02-14T15:50:06.634Z,4.2
2019-02-14T15:55:06.774Z,3.6
2019-02-14T16:00:07.246Z,4.2
2019-02-14T16:05:07.950Z,3.7
2019-02-14T16:10:06.268Z,3.6
2019-02-14T16:15:06.909Z,3.7
2019-02-14T16:20:06.607Z,3.7
2019-02-14T16:25:06.739Z,3.7
2019-02-14T16:30:07.201Z,4.3
2019-02-14T16:35:06.879Z,3.7
2019-02-14T16:40:05.214Z,4.3
2019-02-14T16:45:03.733Z,3.7
2019-02-14T16:50:02.270Z,4.3
2019-02-14T16:55:00.671Z,3.7
2019-02-14T16:59:59.063Z,4.3
2019-02-14T17:04:57.540Z,3.7
2019-02-14T17:09:56.014Z,3.7
2019-02-14T17:14:54.388Z,3.7
2019-02-14T17:19:52.910Z,4.3
2019-02-14T17:24:50.905Z,4.3
2019-02-14T17:29:48.894Z,4.3
2019-02-14T17:34:47.470Z,4.3
2019-02-14T17:39:45.782Z,4.3
2019-02-14T17:44:44.043Z,4.3
2019-02-14T17:49:42.406Z,4.3
2019-02-14T17:54:40.787Z,4.3
2019-02-14T17:59:39.299Z,4.3
2019-02-14T18:04:37.368Z,4.2
2019-02-14T18:09:35.651Z,4.2
2019-02-14T18:14:34.125Z,4.2
2019-02-14T18:19:32.534Z,4.2
2019-02-14T18:24:30.753Z,4.2
2019-02-14T18:29:29.077Z,4.2
2019-02-14T18:34:27.620Z,4.2
2019-02-14T18:39:26.013Z,4.2
2019-02-14T18:44:24.572Z,3.6
2019-02-14T18:49:23.031Z,3.6
2019-02-14T18:54:21.423Z,3.6
2019-02-14T18:59:19.834Z,3.6
2019-02-14T19:04:18.233Z,3.6
2019-02-14T19:09:16.735Z,4.1
2019-02-14T19:14:15.121Z,3.5
2019-02-14T19:19:13.385Z,3.5
2019-02-14T19:24:11.770Z,3.5
2019-02-14T19:29:09.474Z,3.5
2019-02-14T19:34:07.674Z,3.5
2019-02-14T19:39:06.208Z,3.8
2019-02-14T19:44:04.747Z,4.1
2019-02-14T19:49:03.118Z,3.5
2019-02-14T19:54:01.553Z,3.5
2019-02-14T19:58:59.988Z,3.5
2019-02-14T20:03:58.418Z,3.5
2019-02-14T20:08:57.000Z,4
2019-02-14T20:13:55.522Z,3.4
2019-02-14T20:18:54.019Z,4
2019-02-14T20:23:52.380Z,3.4
2019-02-14T20:28:50.931Z,3.4
2019-02-14T20:33:49.309Z,4
2019-02-14T20:38:47.747Z,3.4
2019-02-14T20:43:46.482Z,3.4
2019-02-14T20:48:44.630Z,3.9
2019-02-14T20:53:43.224Z,3.3
2019-02-14T20:58:41.547Z,3.3
2019-02-14T21:03:39.491Z,3.9
2019-02-14T21:08:37.451Z,3.3
2019-02-14T21:13:36.155Z,3.3
2019-02-14T21:18:34.658Z,3.8
2019-02-14T21:23:33.136Z,3.2
2019-02-14T21:28:31.481Z,3.3
2019-02-14T21:33:29.796Z,3.2
2019-02-14T21:38:27.982Z,3.1
2019-02-14T21:43:26.438Z,3.2
2019-02-14T21:48:25.099Z,3.2
2019-02-14T21:53:23.513Z,3.2
2019-02-14T21:58:21.898Z,3.7
2019-02-14T22:03:20.545Z,3.7
2019-02-14T22:08:18.942Z,3.2
2019-02-14T22:13:17.679Z,3.2
2019-02-14T22:18:16.464Z,3.5
2019-02-14T22:23:14.965Z,3.1
2019-02-14T22:28:13.396Z,3.1
2019-02-14T22:33:11.671Z,3.1
2019-02-14T22:38:10.146Z,3.1
2019-02-14T22:43:08.954Z,3.1
2019-02-14T22:48:07.139Z,3.1
2019-02-14T22:53:05.464Z,3.6
2019-02-14T22:58:03.879Z,3.6
2019-02-14T23:03:02.311Z,3
2019-02-14T23:08:00.369Z,3
2019-02-14T23:12:58.827Z,3
2019-02-14T23:17:57.127Z,3.5
2019-02-14T23:22:55.471Z,3
2019-02-14T23:27:54.091Z,3
2019-02-14T23:32:52.644Z,3
2019-02-14T23:37:51.123Z,2.9
2019-02-14T23:42:49.591Z,2.9
2019-02-14T23:47:48.240Z,2.9
2019-02-14T23:52:46.588Z,3.5
2019-02-14T23:57:45.145Z,3.5
